Terminal Aerodrome Forecast
Issued by NWS Cleveland, OH

Home | Current Version | Previous Version | Graphics & Text | Print | Product List | Glossary On
Versions: 1 2 3 4 5 6 7 8 9 10 11 12 13 14 15
000
FTUS41 KCLE 221000 AAA
TAFMFD
TAF AMD
KMFD 221048Z 2211/2306 23015G25KT 6SM -SHRA SCT009 OVC020
      TEMPO 2211/2214 5SM -SHRA BKN009
     FM221600 27020G30KT P6SM SCT025 OVC035
     FM230200 27012KT P6SM OVC025=

USA.gov is the U.S. government's official web portal to all federal, state and local government web resources and services.